createdAt,value
2023-05-14T00:00:54.421Z,8.90
2023-05-14T00:03:21.404Z,8.47
2023-05-14T00:05:48.644Z,9.07
2023-05-14T00:08:15.768Z,8.93
2023-05-14T00:10:42.778Z,9.87
2023-05-14T00:13:09.708Z,9.03
2023-05-14T00:15:36.798Z,9.23
2023-05-14T00:18:03.934Z,9.67
2023-05-14T00:20:31.200Z,10.10
2023-05-14T00:22:58.114Z,10.77
2023-05-14T00:25:25.142Z,9.70
2023-05-14T00:27:52.181Z,12.77
2023-05-14T00:30:19.328Z,8.90
2023-05-14T00:32:46.369Z,10.50
2023-05-14T00:35:13.599Z,10.87
2023-05-14T00:37:40.544Z,12.00
2023-05-14T00:40:08.685Z,9.40
2023-05-14T00:42:35.734Z,11.03
2023-05-14T00:45:02.987Z,10.57
2023-05-14T00:47:29.973Z,11.33
2023-05-14T00:49:57.377Z,11.60
2023-05-14T00:52:24.590Z,9.80
2023-05-14T00:54:52.192Z,10.70
2023-05-14T00:57:19.365Z,10.73
2023-05-14T00:59:46.479Z,11.27
2023-05-14T01:02:13.461Z,10.20
2023-05-14T01:04:40.836Z,11.63
2023-05-14T01:07:29.753Z,10.27
2023-05-14T01:10:04.602Z,12.63
2023-05-14T01:12:47.201Z,13.00
2023-05-14T01:15:17.557Z,11.90
2023-05-14T01:17:56.356Z,11.77
2023-05-14T01:20:23.947Z,11.60
2023-05-14T01:22:51.125Z,11.87
2023-05-14T01:25:18.236Z,11.50
2023-05-14T01:27:54.792Z,11.13
2023-05-14T01:30:29.217Z,11.90
2023-05-14T01:33:00.582Z,11.83
2023-05-14T01:35:29.911Z,10.97
2023-05-14T01:38:01.635Z,10.53
2023-05-14T01:40:29.872Z,11.00
2023-05-14T01:42:57.493Z,10.97
2023-05-14T01:45:24.714Z,10.07
2023-05-14T01:47:51.843Z,10.87
2023-05-14T01:50:19.117Z,11.67
2023-05-14T01:52:46.782Z,11.17
2023-05-14T01:55:15.890Z,13.93
2023-05-14T01:57:42.827Z,10.57
2023-05-14T02:00:10.081Z,12.63
2023-05-14T02:02:37.094Z,10.73
2023-05-14T02:05:06.923Z,10.97
2023-05-14T02:07:34.067Z,10.07
2023-05-14T02:10:01.024Z,9.80
2023-05-14T02:12:28.265Z,13.27
2023-05-14T02:14:55.254Z,11.03
2023-05-14T02:17:22.202Z,12.57
2023-05-14T02:19:49.136Z,12.20
2023-05-14T02:22:16.044Z,12.33
2023-05-14T02:24:42.971Z,12.50
2023-05-14T02:27:10.058Z,12.53
2023-05-14T02:29:36.950Z,12.67
2023-05-14T02:32:04.156Z,12.73
2023-05-14T02:34:31.198Z,13.23
2023-05-14T02:36:58.421Z,12.27
2023-05-14T02:39:25.439Z,12.60
2023-05-14T02:41:52.457Z,13.60
2023-05-14T02:44:19.413Z,13.17
2023-05-14T02:46:46.701Z,13.57
2023-05-14T02:49:13.770Z,13.30
2023-05-14T02:51:40.821Z,12.90
2023-05-14T02:54:07.814Z,13.13
2023-05-14T02:56:34.804Z,13.00
2023-05-14T02:59:01.729Z,13.17
2023-05-14T03:01:29.076Z,11.97
2023-05-14T03:03:56.829Z,14.10
2023-05-14T03:06:23.735Z,13.43
2023-05-14T03:08:50.742Z,13.40
2023-05-14T03:11:17.898Z,11.67
2023-05-14T03:13:44.790Z,12.60
2023-05-14T03:16:11.845Z,11.13
2023-05-14T03:18:39.445Z,11.10
2023-05-14T03:21:06.783Z,11.27
2023-05-14T03:23:35.108Z,11.50
2023-05-14T03:26:02.368Z,12.03
2023-05-14T03:28:29.330Z,11.27
2023-05-14T03:30:56.381Z,13.37
2023-05-14T03:33:23.711Z,12.37
2023-05-14T03:35:51.565Z,14.13
2023-05-14T03:38:18.578Z,13.00
2023-05-14T03:40:46.080Z,14.37
2023-05-14T03:43:12.971Z,11.67
2023-05-14T03:45:40.190Z,11.90
2023-05-14T03:48:07.474Z,13.27
2023-05-14T03:50:34.538Z,12.03
2023-05-14T03:53:01.480Z,12.43
2023-05-14T03:55:28.370Z,11.13
2023-05-14T03:57:55.280Z,11.90
2023-05-14T04:00:22.477Z,11.90
2023-05-14T04:02:49.923Z,11.77
2023-05-14T04:05:17.547Z,12.00
2023-05-14T04:07:45.872Z,12.90
2023-05-14T04:10:14.198Z,13.03
2023-05-14T04:12:41.386Z,12.73
2023-05-14T04:15:09.058Z,11.40
2023-05-14T04:17:36.033Z,12.33
2023-05-14T04:20:03.269Z,11.53
2023-05-14T04:22:30.426Z,10.90
2023-05-14T04:24:57.436Z,11.23
2023-05-14T04:27:24.546Z,12.30
2023-05-14T04:29:51.757Z,11.40
2023-05-14T04:32:18.959Z,11.90
2023-05-14T04:34:47.297Z,11.97
2023-05-14T04:37:14.363Z,11.47
2023-05-14T04:39:41.514Z,11.80
2023-05-14T04:42:08.686Z,12.43
2023-05-14T04:44:37.621Z,11.70
2023-05-14T04:47:05.141Z,11.47
2023-05-14T04:49:32.295Z,10.60
2023-05-14T04:51:59.453Z,11.30
2023-05-14T04:54:26.772Z,15.53
2023-05-14T04:56:55.897Z,10.13
2023-05-14T04:59:23.026Z,11.10
2023-05-14T05:01:49.986Z,10.90
2023-05-14T05:04:17.010Z,10.90
2023-05-14T05:06:44.017Z,11.70
2023-05-14T05:09:11.069Z,10.90
2023-05-14T05:11:38.858Z,12.17
2023-05-14T05:14:05.961Z,11.87
2023-05-14T05:16:33.011Z,12.50
2023-05-14T05:19:00.426Z,11.77
2023-05-14T05:21:27.684Z,11.90
2023-05-14T05:23:54.808Z,12.00
2023-05-14T05:26:22.473Z,14.60
2023-05-14T05:28:49.517Z,12.67
2023-05-14T05:31:19.582Z,15.13
2023-05-14T05:33:47.784Z,13.57
2023-05-14T05:36:16.192Z,14.40
2023-05-14T05:38:43.260Z,18.50
2023-05-14T05:41:10.400Z,14.97
2023-05-14T05:43:37.314Z,12.60
2023-05-14T05:46:04.293Z,15.70
2023-05-14T05:48:31.298Z,14.53
2023-05-14T05:50:58.310Z,14.60
2023-05-14T05:53:25.315Z,13.13
2023-05-14T05:55:52.497Z,12.20
2023-05-14T05:58:19.907Z,15.67
2023-05-14T06:00:47.211Z,13.87
2023-05-14T06:03:14.366Z,14.73
2023-05-14T06:05:41.452Z,15.27
2023-05-14T06:08:08.392Z,13.70
2023-05-14T06:10:36.377Z,13.03
2023-05-14T06:13:03.506Z,14.83
2023-05-14T06:15:30.620Z,14.10
2023-05-14T06:17:57.882Z,14.40
2023-05-14T06:20:25.131Z,14.37
2023-05-14T06:22:52.369Z,15.50
2023-05-14T06:25:19.475Z,13.47
2023-05-14T06:27:46.504Z,13.20
2023-05-14T06:30:13.830Z,16.33
2023-05-14T06:32:41.050Z,14.33
2023-05-14T06:35:08.935Z,15.63
2023-05-14T06:37:36.598Z,12.73
2023-05-14T06:40:04.029Z,16.73
2023-05-14T06:42:31.921Z,13.27
2023-05-14T06:44:58.834Z,14.03
2023-05-14T06:47:26.976Z,13.23
2023-05-14T06:49:54.099Z,11.63
2023-05-14T06:52:21.119Z,12.17
2023-05-14T06:54:47.970Z,12.07
2023-05-14T06:57:14.995Z,11.87
2023-05-14T06:59:42.208Z,10.73
2023-05-14T07:02:09.274Z,12.90
2023-05-14T07:04:36.547Z,12.93
2023-05-14T07:07:03.987Z,9.47
2023-05-14T07:09:31.303Z,11.60
2023-05-14T07:11:58.337Z,13.13
2023-05-14T07:14:25.424Z,12.23
2023-05-14T07:16:52.532Z,11.13
2023-05-14T07:19:19.716Z,10.97
2023-05-14T07:21:46.700Z,11.37
2023-05-14T07:24:13.877Z,10.60
2023-05-14T07:26:40.856Z,10.93
2023-05-14T07:29:08.214Z,9.60
2023-05-14T07:31:35.344Z,9.47
2023-05-14T07:34:02.555Z,9.67
2023-05-14T07:36:30.043Z,8.57
2023-05-14T07:38:57.514Z,9.23
2023-05-14T07:41:24.786Z,7.70
2023-05-14T07:43:51.858Z,8.47
2023-05-14T07:46:18.943Z,7.90
2023-05-14T07:48:46.018Z,7.83
2023-05-14T07:51:13.117Z,7.70
2023-05-14T07:53:40.137Z,8.20
2023-05-14T07:56:07.865Z,8.17
2023-05-14T07:58:35.895Z,8.23
2023-05-14T08:01:07.166Z,9.73
2023-05-14T08:03:34.645Z,8.53
2023-05-14T08:06:03.957Z,6.93
2023-05-14T08:08:31.355Z,7.80
2023-05-14T08:10:58.469Z,8.03
2023-05-14T08:13:25.727Z,10.67
2023-05-14T08:15:52.867Z,9.23
2023-05-14T08:18:19.761Z,7.90
2023-05-14T08:20:47.139Z,8.37
2023-05-14T08:23:14.242Z,8.73
2023-05-14T08:25:41.341Z,8.40
2023-05-14T08:28:08.303Z,9.50
2023-05-14T08:30:35.427Z,8.67
2023-05-14T08:33:03.609Z,8.50
2023-05-14T08:35:31.067Z,9.10
2023-05-14T08:37:58.358Z,9.37
2023-05-14T08:40:26.166Z,9.77
2023-05-14T08:42:54.351Z,8.40
2023-05-14T08:45:26.233Z,9.50
2023-05-14T08:47:53.956Z,9.13
2023-05-14T08:50:23.581Z,7.67
2023-05-14T08:52:51.714Z,4.17
2023-05-14T08:55:19.910Z,6.90
2023-05-14T08:57:47.044Z,7.10
2023-05-14T09:00:16.411Z,7.33
2023-05-14T09:02:44.957Z,9.67
2023-05-14T09:05:12.552Z,6.83
2023-05-14T09:07:39.960Z,8.20
2023-05-14T09:10:09.178Z,9.40
2023-05-14T09:12:37.128Z,7.27
2023-05-14T09:15:04.846Z,7.40
2023-05-14T09:17:32.017Z,8.40
2023-05-14T09:20:00.604Z,7.53
2023-05-14T09:22:33.054Z,7.37
2023-05-14T09:25:09.572Z,8.13
2023-05-14T09:27:37.952Z,7.63
2023-05-14T09:30:10.640Z,7.97
2023-05-14T09:32:50.269Z,7.43
2023-05-14T09:35:19.869Z,8.07
2023-05-14T09:37:49.182Z,6.47
2023-05-14T09:40:18.392Z,7.10
2023-05-14T09:42:45.971Z,6.97
2023-05-14T09:45:13.203Z,6.93
2023-05-14T09:47:40.787Z,7.07
2023-05-14T09:50:08.450Z,7.47
2023-05-14T09:52:35.697Z,6.10
2023-05-14T09:55:02.902Z,7.27
2023-05-14T09:57:29.854Z,7.00
2023-05-14T09:59:56.844Z,6.27
2023-05-14T10:02:36.894Z,7.83
2023-05-14T10:05:07.179Z,5.83
2023-05-14T10:07:40.012Z,6.93
2023-05-14T10:10:11.692Z,7.37
2023-05-14T10:12:40.589Z,8.37
2023-05-14T10:15:16.694Z,7.20
2023-05-14T10:17:51.869Z,7.00
2023-05-14T10:20:20.784Z,6.73
2023-05-14T10:22:47.664Z,7.93
2023-05-14T10:25:14.837Z,7.17
2023-05-14T10:27:42.434Z,7.47
2023-05-14T10:30:13.074Z,6.70
2023-05-14T10:32:41.929Z,6.67
2023-05-14T10:35:25.401Z,6.83
2023-05-14T10:37:52.319Z,7.10
2023-05-14T10:40:20.500Z,7.23
2023-05-14T10:42:48.229Z,5.57
2023-05-14T10:45:16.034Z,6.70
2023-05-14T10:47:46.181Z,6.03
2023-05-14T10:50:15.339Z,5.40
2023-05-14T10:52:44.192Z,4.77
2023-05-14T10:55:14.265Z,6.63
2023-05-14T10:57:44.729Z,5.70
2023-05-14T11:00:12.807Z,4.40
2023-05-14T11:02:42.142Z,5.43
2023-05-14T11:05:17.826Z,4.73
2023-05-14T11:07:47.237Z,4.83
2023-05-14T11:10:18.981Z,4.60
2023-05-14T11:12:48.253Z,4.27
2023-05-14T11:15:21.264Z,4.67
2023-05-14T11:17:49.978Z,4.67
2023-05-14T11:20:18.214Z,4.77
2023-05-14T11:22:46.655Z,4.77
2023-05-14T11:25:14.754Z,4.37
2023-05-14T11:27:45.110Z,4.50
2023-05-14T11:30:19.967Z,4.50
2023-05-14T11:32:48.864Z,4.60
2023-05-14T11:35:16.899Z,4.50
2023-05-14T11:37:49.300Z,4.50
2023-05-14T11:40:17.000Z,4.00
2023-05-14T11:42:43.939Z,4.47
2023-05-14T11:45:24.349Z,4.07
2023-05-14T11:47:53.523Z,4.30
2023-05-14T11:50:24.849Z,4.90
2023-05-14T11:52:57.056Z,4.43
2023-05-14T11:55:24.185Z,4.80
2023-05-14T11:57:51.620Z,5.00
2023-05-14T12:00:22.088Z,5.17
2023-05-14T12:02:50.054Z,8.20
2023-05-14T12:05:17.253Z,5.67
2023-05-14T12:07:47.686Z,4.37
2023-05-14T12:10:15.007Z,4.10
2023-05-14T12:12:47.116Z,4.10
2023-05-14T12:15:15.434Z,4.50
2023-05-14T12:17:42.716Z,4.80
2023-05-14T12:20:11.714Z,4.17
2023-05-14T12:22:39.502Z,4.07
2023-05-14T12:25:13.424Z,3.60
2023-05-14T12:27:40.778Z,3.60
2023-05-14T12:32:42.068Z,6.57
2023-05-14T12:35:09.982Z,4.13
2023-05-14T12:37:39.212Z,4.13
2023-05-14T12:40:09.837Z,3.97
2023-05-14T12:42:37.372Z,3.53
2023-05-14T12:45:08.166Z,5.67
2023-05-14T12:47:36.151Z,3.90
2023-05-14T12:50:03.605Z,3.60
2023-05-14T12:52:37.865Z,4.37
2023-05-14T12:55:07.282Z,3.10
2023-05-14T12:57:35.647Z,3.13
2023-05-14T13:00:06.928Z,3.43
2023-05-14T13:02:42.275Z,3.40
2023-05-14T13:05:13.988Z,3.10
2023-05-14T13:07:41.321Z,2.67
2023-05-14T13:10:08.844Z,4.70
2023-05-14T13:12:35.839Z,5.40
2023-05-14T13:15:02.903Z,2.73
2023-05-14T13:17:30.394Z,3.30
2023-05-14T13:19:57.527Z,2.60
2023-05-14T13:22:24.509Z,4.10
2023-05-14T13:24:51.444Z,3.20
2023-05-14T13:27:18.314Z,3.07
2023-05-14T13:29:45.314Z,2.90
2023-05-14T13:32:12.222Z,2.33
2023-05-14T13:34:39.292Z,3.13
2023-05-14T13:37:06.584Z,1.40
2023-05-14T13:39:33.538Z,2.40
2023-05-14T13:42:01.179Z,1.80
2023-05-14T13:44:28.150Z,1.50
2023-05-14T13:46:55.173Z,1.87
2023-05-14T13:49:22.298Z,1.77
2023-05-14T13:51:49.229Z,2.07
2023-05-14T13:54:16.159Z,2.07
2023-05-14T13:56:43.106Z,2.20
2023-05-14T13:59:11.185Z,3.17
2023-05-14T14:01:38.119Z,1.93
2023-05-14T14:04:05.359Z,2.53
2023-05-14T14:06:33.248Z,5.97
2023-05-14T14:09:00.410Z,3.10
2023-05-14T14:11:27.795Z,2.90
2023-05-14T14:13:54.711Z,3.60
2023-05-14T14:16:21.772Z,3.00
2023-05-14T14:18:48.903Z,2.70
2023-05-14T14:21:18.255Z,2.20
2023-05-14T14:23:48.958Z,2.00
2023-05-14T14:26:16.243Z,1.13
2023-05-14T14:28:43.252Z,1.00
2023-05-14T14:31:10.713Z,1.70
2023-05-14T14:33:37.790Z,2.30
2023-05-14T14:36:05.514Z,2.03
2023-05-14T14:38:32.523Z,2.20
2023-05-14T14:40:59.796Z,3.90
2023-05-14T14:43:27.781Z,2.20
2023-05-14T14:45:55.144Z,1.17
2023-05-14T14:48:23.524Z,1.07
2023-05-14T14:50:50.732Z,6.60
2023-05-14T14:53:18.838Z,1.50
2023-05-14T14:55:46.386Z,1.60
2023-05-14T14:58:13.503Z,3.43
2023-05-14T15:00:40.781Z,2.00
2023-05-14T15:03:09.918Z,1.70
2023-05-14T15:05:36.977Z,2.20
2023-05-14T15:08:04.731Z,3.20
2023-05-14T15:10:32.209Z,2.40
2023-05-14T15:12:59.674Z,0.60
2023-05-14T15:15:26.977Z,1.20
2023-05-14T15:17:54.021Z,2.03
2023-05-14T15:20:20.943Z,1.10
2023-05-14T15:22:49.110Z,2.20
2023-05-14T15:25:16.110Z,2.27
2023-05-14T15:27:43.121Z,1.77
2023-05-14T15:30:10.909Z,1.50
2023-05-14T15:32:38.073Z,2.07
2023-05-14T15:35:05.389Z,2.50
2023-05-14T15:37:38.130Z,1.50
2023-05-14T15:40:08.166Z,1.73
2023-05-14T15:42:37.382Z,1.70
2023-05-14T15:45:04.763Z,1.47
2023-05-14T15:47:32.619Z,1.50
2023-05-14T15:50:01.142Z,1.80
2023-05-14T15:52:28.899Z,1.70
2023-05-14T15:54:57.483Z,1.97
2023-05-14T15:57:24.543Z,2.60
2023-05-14T15:59:51.629Z,2.50
2023-05-14T16:02:18.681Z,2.40
2023-05-14T16:04:45.848Z,2.20
2023-05-14T16:07:13.929Z,2.13
2023-05-14T16:09:40.963Z,1.90
2023-05-14T16:12:09.080Z,1.90
2023-05-14T16:14:36.451Z,2.50
2023-05-14T16:17:03.611Z,2.10
2023-05-14T16:19:30.664Z,3.00
2023-05-14T16:21:57.595Z,2.20
2023-05-14T16:24:24.519Z,1.93
2023-05-14T16:26:51.527Z,2.30
2023-05-14T16:29:18.400Z,2.50
2023-05-14T16:31:46.272Z,2.40
2023-05-14T16:34:13.565Z,2.43
2023-05-14T16:36:41.102Z,2.43
2023-05-14T16:39:08.640Z,2.20
2023-05-14T16:41:36.166Z,2.30
2023-05-14T16:44:03.477Z,2.50
2023-05-14T16:46:31.288Z,2.20
2023-05-14T16:48:58.330Z,2.87
2023-05-14T16:51:25.410Z,2.80
2023-05-14T16:53:52.915Z,2.30
2023-05-14T16:56:22.432Z,2.50
2023-05-14T16:58:49.829Z,2.10
2023-05-14T17:01:17.037Z,2.70
2023-05-14T17:03:45.583Z,2.50
2023-05-14T17:06:12.605Z,2.67
2023-05-14T17:08:39.537Z,3.70
2023-05-14T17:11:06.593Z,2.90
2023-05-14T17:13:34.078Z,3.80
2023-05-14T17:16:01.158Z,3.60
2023-05-14T17:18:28.779Z,3.47
2023-05-14T17:20:55.744Z,2.90
2023-05-14T17:23:22.708Z,2.77
2023-05-14T17:25:49.787Z,3.07
2023-05-14T17:28:16.956Z,2.80
2023-05-14T17:30:43.937Z,3.17
2023-05-14T17:33:11.383Z,2.93
2023-05-14T17:35:38.773Z,2.80
2023-05-14T17:38:05.728Z,2.93
2023-05-14T17:40:33.438Z,2.93
2023-05-14T17:43:00.559Z,3.40
2023-05-14T17:45:28.588Z,14.83
2023-05-14T17:47:57.587Z,15.00
2023-05-14T17:50:24.612Z,18.33
2023-05-14T17:52:51.576Z,6.80
2023-05-14T17:55:19.239Z,4.33
2023-05-14T17:57:46.533Z,3.30
2023-05-14T18:00:13.961Z,3.40
2023-05-14T18:02:45.119Z,3.33
2023-05-14T18:05:12.192Z,3.93
2023-05-14T18:07:39.286Z,5.70
2023-05-14T18:10:07.010Z,3.50
2023-05-14T18:12:36.326Z,4.73
2023-05-14T18:15:04.441Z,3.87
2023-05-14T18:17:31.427Z,3.80
2023-05-14T18:20:00.198Z,4.50
2023-05-14T18:22:27.183Z,4.10
2023-05-14T18:24:54.297Z,4.30
2023-05-14T18:27:21.186Z,4.40
2023-05-14T18:29:48.049Z,7.70
2023-05-14T18:32:15.105Z,4.13
2023-05-14T18:34:42.203Z,4.33
2023-05-14T18:37:09.663Z,5.17
2023-05-14T18:39:36.679Z,4.70
2023-05-14T18:42:03.679Z,4.30
2023-05-14T18:44:30.948Z,4.53
2023-05-14T18:46:59.511Z,4.20
2023-05-14T18:49:26.525Z,5.10
2023-05-14T18:51:53.404Z,6.40
2023-05-14T18:54:20.343Z,4.87
2023-05-14T18:56:47.776Z,6.33
2023-05-14T18:59:14.926Z,5.17
2023-05-14T19:01:41.980Z,6.23
2023-05-14T19:04:09.001Z,5.00
2023-05-14T19:06:36.347Z,5.30
2023-05-14T19:09:04.374Z,5.40
2023-05-14T19:11:31.471Z,5.33
2023-05-14T19:13:58.439Z,6.53
2023-05-14T19:16:26.409Z,4.20
2023-05-14T19:18:53.740Z,6.47
2023-05-14T19:21:20.707Z,5.20
2023-05-14T19:23:47.631Z,11.63
2023-05-14T19:26:14.756Z,4.13
2023-05-14T19:28:41.858Z,4.37
2023-05-14T19:31:08.758Z,4.50
2023-05-14T19:33:35.915Z,10.80
2023-05-14T19:36:02.972Z,4.80
2023-05-14T19:38:30.520Z,5.17
2023-05-14T19:40:57.508Z,9.30
2023-05-14T19:43:25.724Z,5.53
2023-05-14T19:45:52.821Z,4.60
2023-05-14T19:48:19.937Z,6.63
2023-05-14T19:50:47.390Z,4.60
2023-05-14T19:53:14.725Z,5.07
2023-05-14T19:55:41.836Z,5.37
2023-05-14T19:58:09.148Z,11.67
2023-05-14T20:00:37.055Z,5.30
2023-05-14T20:03:05.959Z,5.57
2023-05-14T20:05:34.482Z,5.40
2023-05-14T20:08:01.769Z,5.30
2023-05-14T20:10:30.554Z,5.50
2023-05-14T20:12:57.470Z,5.00
2023-05-14T20:15:24.346Z,4.80
2023-05-14T20:17:51.390Z,5.80
2023-05-14T20:20:18.455Z,5.10
2023-05-14T20:22:45.483Z,13.13
2023-05-14T20:25:12.981Z,4.53
2023-05-14T20:27:41.202Z,3.57
2023-05-14T20:30:08.936Z,4.07
2023-05-14T20:32:36.438Z,4.53
2023-05-14T20:35:03.642Z,4.80
2023-05-14T20:37:32.319Z,3.97
2023-05-14T20:40:00.512Z,3.67
2023-05-14T20:42:27.968Z,3.20
2023-05-14T20:44:55.547Z,3.80
2023-05-14T20:47:26.885Z,5.13
2023-05-14T20:49:53.905Z,4.33
2023-05-14T20:52:21.005Z,4.20
2023-05-14T20:54:49.040Z,4.23
2023-05-14T20:57:18.431Z,4.20
2023-05-14T20:59:49.064Z,4.30
2023-05-14T21:02:16.336Z,4.43
2023-05-14T21:04:43.477Z,4.67
2023-05-14T21:07:10.575Z,4.40
2023-05-14T21:09:37.638Z,6.40
2023-05-14T21:12:05.652Z,6.53
2023-05-14T21:14:32.576Z,8.17
2023-05-14T21:16:59.551Z,5.53
2023-05-14T21:19:26.455Z,5.17
2023-05-14T21:21:53.459Z,6.13
2023-05-14T21:24:20.553Z,5.60
2023-05-14T21:26:47.526Z,5.00
2023-05-14T21:29:14.440Z,5.37
2023-05-14T21:31:41.496Z,5.13
2023-05-14T21:34:08.689Z,6.77
2023-05-14T21:36:35.784Z,4.83
2023-05-14T21:39:02.799Z,5.00
2023-05-14T21:41:31.850Z,4.80
2023-05-14T21:43:58.928Z,5.30
2023-05-14T21:46:26.102Z,5.60
2023-05-14T21:48:53.260Z,5.33
2023-05-14T21:51:20.441Z,4.20
2023-05-14T21:53:48.476Z,5.50
2023-05-14T21:56:15.625Z,5.73
2023-05-14T21:58:42.715Z,4.87
2023-05-14T22:01:11.503Z,4.40
2023-05-14T22:03:38.933Z,4.37
2023-05-14T22:06:06.106Z,5.23
2023-05-14T22:08:33.327Z,4.80
2023-05-14T22:11:00.272Z,3.73
2023-05-14T22:13:27.187Z,4.80
2023-05-14T22:16:01.533Z,4.03
2023-05-14T22:18:36.689Z,7.03
2023-05-14T22:21:04.350Z,3.90
2023-05-14T22:23:31.326Z,5.30
2023-05-14T22:25:58.464Z,4.47
2023-05-14T22:28:25.389Z,4.40
2023-05-14T22:30:52.629Z,4.40
2023-05-14T22:33:19.597Z,4.67
2023-05-14T22:35:46.511Z,5.37
2023-05-14T22:38:14.076Z,4.63
2023-05-14T22:40:41.081Z,4.67
2023-05-14T22:43:08.094Z,4.60
2023-05-14T22:45:35.048Z,4.10
2023-05-14T22:48:02.430Z,4.03
2023-05-14T22:50:29.381Z,3.90
2023-05-14T22:52:56.407Z,3.87
2023-05-14T22:55:23.688Z,3.53
2023-05-14T22:57:50.951Z,5.00
2023-05-14T23:00:18.048Z,4.23
2023-05-14T23:02:45.110Z,4.00
2023-05-14T23:05:13.053Z,4.30
2023-05-14T23:07:40.072Z,4.67
2023-05-14T23:10:07.427Z,4.80
2023-05-14T23:12:34.485Z,4.47
2023-05-14T23:15:01.510Z,4.47
2023-05-14T23:17:28.688Z,4.17
2023-05-14T23:19:55.808Z,7.57
2023-05-14T23:22:22.937Z,4.87
2023-05-14T23:24:49.902Z,4.00
2023-05-14T23:27:17.018Z,4.83
2023-05-14T23:29:43.977Z,4.27
2023-05-14T23:32:10.965Z,6.80
2023-05-14T23:34:37.936Z,4.67
2023-05-14T23:37:05.135Z,4.50
2023-05-14T23:39:32.903Z,5.87
2023-05-14T23:41:59.780Z,5.77
2023-05-14T23:44:26.854Z,5.40
2023-05-14T23:46:54.043Z,5.73
2023-05-14T23:49:21.035Z,6.07
2023-05-14T23:51:47.955Z,5.50
2023-05-14T23:54:15.223Z,6.33
2023-05-14T23:56:42.188Z,6.10
2023-05-14T23:59:09.314Z,4.60
